| Date | Time | Temp. (oF) | Dew Point (oF) | Rel. Hum. (%) | Press. (in.) | Wind Dir. | Wind Speed (mph) | Hourly Rainfall (in.) |
|
|---|---|---|---|---|---|---|---|---|---|
| 1 | 08/12 | 00:00 | 73 | 72 | 98 | 30.01 | SSE | 0 | 0.00 |
| 2 | 08/11 | 23:00 | 74 | 72 | 96 | 29.99 | SE | 0 | 0.00 |
| 3 | 08/11 | 22:00 | 75 | 72 | 93 | 29.98 | ESE | 0 | 0.00 |
| 4 | 08/11 | 21:00 | 77 | 73 | 88 | 29.96 | E | 0 | 0.00 |
| 5 | 08/11 | 20:00 | 79 | 74 | 87 | 29.93 | SE | 2 | 0.00 |
| 6 | 08/11 | 19:00 | 80 | 74 | 83 | 29.92 | SE | 3 | 0.00 |
| 7 | 08/11 | 18:00 | 80 | 74 | 84 | 29.91 | SSE | 3 | 0.00 |
| 8 | 08/11 | 17:00 | 78 | 74 | 89 | 29.92 | SW | 1 | 0.00 |
| 9 | 08/11 | 16:00 | 76 | 75 | 99 | 29.93 | SSW | 2 | 0.01 |
| 10 | 08/11 | 15:00 | 73 | 72 | 98 | 29.95 | SSE | 1 | 0.85 |
| 11 | miss | miss | miss | miss | miss | miss | miss | miss | |
| 12 | 08/11 | 13:00 | 80 | 72 | 79 | 29.95 | S | 3 | 0.00 |
| 13 | 08/11 | 12:00 | 81 | 74 | 82 | 29.95 | SE | 5 | 0.00 |
| 14 | 08/11 | 11:00 | 78 | 74 | 88 | 29.95 | SSE | 4 | 0.00 |
| 15 | 08/11 | 10:00 | 77 | 75 | 96 | 29.96 | SSE | 4 | 0.01 |
| 16 | 08/11 | 09:00 | 74 | 73 | 100 | 29.97 | ESE | 2 | 0.00 |
| 17 | 08/11 | 08:00 | 73 | 72 | 100 | 29.96 | ESE | 0 | 0.00 |
| 18 | 08/11 | 07:00 | 72 | 72 | 100 | 29.96 | NNW | 0 | 0.00 |
| 19 | 08/11 | 06:00 | 72 | 72 | 100 | 29.94 | ENE | 0 | 0.00 |
| 20 | 08/11 | 05:00 | 73 | 72 | 100 | 29.94 | ESE | 3 | 0.00 |
| 21 | 08/11 | 04:00 | 73 | 72 | 100 | 29.94 | ESE | 0 | 0.00 |
| 22 | 08/11 | 03:00 | 74 | 73 | 100 | 29.95 | SSW | 2 | 0.07 |
| 23 | 08/11 | 02:00 | 75 | 74 | 99 | 29.97 | S | 3 | 0.00 |
| 24 | 08/11 | 01:00 | 75 | 74 | 97 | 29.97 | SSE | 0 | 0.00 |